createdAt,value
2022-09-27T00:00:47.320Z,0
2022-09-27T00:01:47.300Z,0
2022-09-27T00:02:47.285Z,0
2022-09-27T00:03:47.327Z,0
2022-09-27T00:04:47.262Z,0
2022-09-27T00:05:47.252Z,0
2022-09-27T00:06:47.244Z,0
2022-09-27T00:07:47.232Z,0
2022-09-27T00:08:47.260Z,0
2022-09-27T00:09:47.218Z,0
2022-09-27T00:10:47.200Z,0
2022-09-27T00:11:47.193Z,0
2022-09-27T00:12:47.185Z,0
2022-09-27T00:13:47.170Z,0
2022-09-27T00:14:47.155Z,0
2022-09-27T00:15:47.186Z,0
2022-09-27T00:16:47.135Z,0
2022-09-27T00:17:47.126Z,0
2022-09-27T00:18:47.120Z,0
2022-09-27T00:19:47.103Z,0
2022-09-27T00:20:47.097Z,0
2022-09-27T00:21:47.088Z,0
2022-09-27T00:22:47.074Z,0
2022-09-27T00:23:47.062Z,0
2022-09-27T00:24:47.048Z,0
2022-09-27T00:25:47.042Z,0
2022-09-27T00:26:47.032Z,0
2022-09-27T00:27:47.120Z,0
2022-09-27T00:28:47.006Z,0
2022-09-27T00:29:46.999Z,0
2022-09-27T00:30:46.987Z,0
2022-09-27T00:31:46.972Z,0
2022-09-27T00:32:46.973Z,0
2022-09-27T00:33:46.948Z,0
2022-09-27T00:34:46.940Z,0
2022-09-27T00:35:46.934Z,0
2022-09-27T00:36:46.919Z,0
2022-09-27T00:37:46.907Z,0
2022-09-27T00:38:46.902Z,0
2022-09-27T00:39:46.957Z,0
2022-09-27T00:40:46.876Z,0
2022-09-27T00:41:46.862Z,0
2022-09-27T00:42:46.852Z,0
2022-09-27T00:43:46.841Z,0
2022-09-27T00:44:46.841Z,0
2022-09-27T00:45:46.819Z,0
2022-09-27T00:46:46.813Z,0
2022-09-27T00:47:46.800Z,0
2022-09-27T00:48:46.791Z,0
2022-09-27T00:49:46.777Z,0
2022-09-27T00:50:46.777Z,0
2022-09-27T00:51:46.861Z,0
2022-09-27T00:52:46.744Z,0
2022-09-27T00:53:46.737Z,0
2022-09-27T00:54:46.725Z,0
2022-09-27T00:55:46.713Z,0
2022-09-27T00:56:46.713Z,0
2022-09-27T00:57:46.691Z,0
2022-09-27T00:58:46.681Z,0
2022-09-27T00:59:46.674Z,0
2022-09-27T01:00:46.661Z,0
2022-09-27T01:01:46.647Z,0
2022-09-27T01:02:46.652Z,0
2022-09-27T01:03:46.682Z,0
2022-09-27T01:04:46.617Z,0
2022-09-27T01:05:46.608Z,0
2022-09-27T01:06:46.594Z,0
2022-09-27T01:07:46.586Z,0
2022-09-27T01:08:46.590Z,0
2022-09-27T01:09:46.562Z,0
2022-09-27T01:10:46.552Z,0
2022-09-27T01:11:46.541Z,0
2022-09-27T01:12:46.535Z,0
2022-09-27T01:13:46.524Z,0
2022-09-27T01:14:46.526Z,0
2022-09-27T01:15:46.500Z,0
2022-09-27T01:16:46.487Z,0
2022-09-27T01:17:46.483Z,0
2022-09-27T01:18:46.469Z,0
2022-09-27T01:19:46.459Z,0
2022-09-27T01:20:46.464Z,0
2022-09-27T01:21:46.433Z,0
2022-09-27T01:22:46.427Z,0
2022-09-27T01:23:46.416Z,0
2022-09-27T01:24:46.408Z,0
2022-09-27T01:25:46.396Z,0
2022-09-27T01:26:46.389Z,0
2022-09-27T01:27:46.419Z,0
2022-09-27T01:28:46.368Z,0
2022-09-27T01:29:46.351Z,0
2022-09-27T01:30:46.349Z,0
2022-09-27T01:31:46.332Z,0
2022-09-27T01:32:46.343Z,0
2022-09-27T01:33:46.313Z,0
2022-09-27T01:34:46.295Z,0
2022-09-27T01:35:46.286Z,0
2022-09-27T01:36:46.278Z,0
2022-09-27T01:37:46.271Z,0
2022-09-27T01:38:46.262Z,0
2022-09-27T01:39:47.243Z,0
2022-09-27T01:40:46.234Z,0
2022-09-27T01:41:46.223Z,0
2022-09-27T01:42:46.211Z,0
2022-09-27T01:43:46.201Z,0
2022-09-27T01:44:46.198Z,0
2022-09-27T01:45:46.177Z,0
2022-09-27T01:46:46.168Z,0
2022-09-27T01:47:46.162Z,0
2022-09-27T01:48:46.146Z,0
2022-09-27T01:49:46.134Z,0
2022-09-27T01:50:46.135Z,0
2022-09-27T01:51:46.114Z,0
2022-09-27T01:52:46.111Z,0
2022-09-27T01:53:46.090Z,0
2022-09-27T01:54:46.083Z,0
2022-09-27T01:55:46.072Z,0
2022-09-27T01:56:46.075Z,0
2022-09-27T01:57:46.048Z,0
2022-09-27T01:58:46.040Z,0
2022-09-27T01:59:46.030Z,0
2022-09-27T02:00:46.019Z,0
2022-09-27T02:01:46.009Z,0
2022-09-27T02:02:46.008Z,0
2022-09-27T02:03:45.985Z,0
2022-09-27T02:04:45.973Z,0
2022-09-27T02:05:45.967Z,0
2022-09-27T02:06:45.957Z,0
2022-09-27T02:07:45.940Z,0
2022-09-27T02:08:45.957Z,0
2022-09-27T02:09:45.920Z,0
2022-09-27T02:10:45.911Z,0
2022-09-27T02:11:45.898Z,0
2022-09-27T02:12:45.890Z,0
2022-09-27T02:13:45.879Z,0
2022-09-27T02:14:45.876Z,0
2022-09-27T02:15:45.857Z,0
2022-09-27T02:16:45.848Z,0
2022-09-27T02:17:45.834Z,0
2022-09-27T02:18:45.827Z,0
2022-09-27T02:19:45.818Z,0
2022-09-27T02:20:45.809Z,0
2022-09-27T02:21:45.789Z,0
2022-09-27T02:22:45.781Z,0
2022-09-27T02:23:45.773Z,0
2022-09-27T02:24:45.758Z,0
2022-09-27T02:25:45.748Z,0
2022-09-27T02:26:45.748Z,0
2022-09-27T02:27:45.728Z,0
2022-09-27T02:28:45.731Z,0
2022-09-27T02:29:45.705Z,0
2022-09-27T02:30:45.707Z,0
2022-09-27T02:31:45.692Z,0
2022-09-27T02:32:45.672Z,0
2022-09-27T02:33:45.664Z,0
2022-09-27T02:34:45.660Z,0
2022-09-27T02:35:45.641Z,0
2022-09-27T02:36:45.633Z,0
2022-09-27T02:37:45.617Z,0
2022-09-27T02:38:45.609Z,0
2022-09-27T02:39:45.593Z,0
2022-09-27T02:40:45.585Z,0
2022-09-27T02:41:45.573Z,0
2022-09-27T02:42:45.565Z,0
2022-09-27T02:43:45.551Z,0
2022-09-27T02:44:45.540Z,0
2022-09-27T02:45:45.530Z,0
2022-09-27T02:46:45.516Z,0
2022-09-27T02:47:45.506Z,0
2022-09-27T02:48:45.493Z,0
2022-09-27T02:49:45.486Z,0
2022-09-27T02:50:45.474Z,0
2022-09-27T02:51:45.468Z,0
2022-09-27T02:52:45.451Z,0
2022-09-27T02:53:45.444Z,0
2022-09-27T02:54:45.428Z,0
2022-09-27T02:55:45.416Z,0
2022-09-27T02:56:45.415Z,0
2022-09-27T02:57:45.396Z,0
2022-09-27T02:58:45.384Z,0
2022-09-27T02:59:45.382Z,0
2022-09-27T03:00:45.366Z,0
2022-09-27T03:01:45.356Z,0
2022-09-27T03:02:45.347Z,0
2022-09-27T03:03:45.335Z,0
2022-09-27T03:04:45.325Z,0
2022-09-27T03:05:45.310Z,0
2022-09-27T03:06:45.296Z,0
2022-09-27T03:07:45.286Z,0
2022-09-27T03:08:45.275Z,0
2022-09-27T03:09:45.262Z,0
2022-09-27T03:10:45.250Z,0
2022-09-27T03:11:45.245Z,0
2022-09-27T03:12:45.231Z,0
2022-09-27T03:13:45.227Z,0
2022-09-27T03:14:45.215Z,0
2022-09-27T03:15:45.203Z,0
2022-09-27T03:16:45.186Z,0
2022-09-27T03:17:45.174Z,0
2022-09-27T03:18:45.163Z,0
2022-09-27T03:19:45.155Z,0
2022-09-27T03:20:45.155Z,0
2022-09-27T03:21:45.133Z,0
2022-09-27T03:22:45.123Z,0
2022-09-27T03:23:45.109Z,0
2022-09-27T03:24:45.099Z,0
2022-09-27T03:25:45.088Z,0
2022-09-27T03:26:45.085Z,0
2022-09-27T03:27:45.064Z,0
2022-09-27T03:28:45.063Z,0
2022-09-27T03:29:45.044Z,0
2022-09-27T03:30:45.033Z,0
2022-09-27T03:31:45.020Z,0
2022-09-27T03:32:45.014Z,0
2022-09-27T03:33:45.000Z,0
2022-09-27T03:34:44.997Z,0
2022-09-27T03:35:44.980Z,0
2022-09-27T03:36:44.964Z,0
2022-09-27T03:37:44.956Z,0
2022-09-27T03:38:44.949Z,0
2022-09-27T03:39:44.933Z,0
2022-09-27T03:40:44.952Z,0
2022-09-27T03:41:44.939Z,0
2022-09-27T03:42:44.897Z,0
2022-09-27T03:43:44.887Z,0
2022-09-27T03:44:44.888Z,0
2022-09-27T03:45:44.877Z,0
2022-09-27T03:46:44.857Z,0
2022-09-27T03:47:44.847Z,0
2022-09-27T03:48:44.838Z,0
2022-09-27T03:49:44.853Z,0
2022-09-27T03:50:44.811Z,0
2022-09-27T03:51:44.804Z,0
2022-09-27T03:52:44.794Z,0
2022-09-27T03:53:44.781Z,0
2022-09-27T03:54:44.769Z,0
2022-09-27T03:55:44.761Z,0
2022-09-27T03:56:44.750Z,0
2022-09-27T03:57:44.766Z,0
2022-09-27T03:58:44.727Z,0
2022-09-27T03:59:44.716Z,0
2022-09-27T04:00:44.708Z,0
2022-09-27T04:01:44.697Z,0
2022-09-27T04:02:44.686Z,0
2022-09-27T04:03:44.678Z,0
2022-09-27T04:04:44.662Z,0
2022-09-27T04:05:44.650Z,0
2022-09-27T04:06:44.649Z,0
2022-09-27T04:07:44.628Z,0
2022-09-27T04:08:44.618Z,0
2022-09-27T04:09:44.616Z,0
2022-09-27T04:10:44.596Z,0
2022-09-27T04:11:44.585Z,0
2022-09-27T04:12:44.575Z,0
2022-09-27T04:13:44.569Z,0
2022-09-27T04:14:44.554Z,0
2022-09-27T04:15:44.550Z,0
2022-09-27T04:16:44.536Z,0
2022-09-27T04:17:44.522Z,0
2022-09-27T04:18:44.512Z,0
2022-09-27T04:19:44.498Z,0
2022-09-27T04:20:44.491Z,0
2022-09-27T04:21:44.495Z,0
2022-09-27T04:22:44.467Z,0
2022-09-27T04:23:44.459Z,0
2022-09-27T04:24:44.456Z,0
2022-09-27T04:25:44.433Z,0
2022-09-27T04:26:44.428Z,0
2022-09-27T04:27:44.416Z,0
2022-09-27T04:28:44.406Z,0
2022-09-27T04:29:44.393Z,0
2022-09-27T04:30:44.379Z,0
2022-09-27T04:31:44.372Z,0
2022-09-27T04:32:44.360Z,0
2022-09-27T04:33:44.351Z,0
2022-09-27T04:34:44.336Z,0
2022-09-27T04:35:44.328Z,0
2022-09-27T04:36:44.318Z,0
2022-09-27T04:37:44.306Z,0
2022-09-27T04:38:44.292Z,0
2022-09-27T04:39:44.289Z,0
2022-09-27T04:40:44.294Z,0
2022-09-27T04:41:44.261Z,0
2022-09-27T04:42:44.252Z,0
2022-09-27T04:43:44.245Z,0
2022-09-27T04:44:44.226Z,0
2022-09-27T04:45:44.236Z,0
2022-09-27T04:46:44.208Z,0
2022-09-27T04:47:44.200Z,0
2022-09-27T04:48:44.183Z,0
2022-09-27T04:49:44.172Z,0
2022-09-27T04:50:44.175Z,0
2022-09-27T04:51:44.159Z,0
2022-09-27T04:52:44.141Z,0
2022-09-27T04:53:44.127Z,0
2022-09-27T04:54:44.117Z,0
2022-09-27T04:55:44.107Z,0
2022-09-27T04:56:44.095Z,0
2022-09-27T04:57:44.094Z,0
2022-09-27T04:58:44.072Z,0
2022-09-27T04:59:44.061Z,0
2022-09-27T05:00:44.053Z,0
2022-09-27T05:01:44.041Z,0
2022-09-27T05:02:44.027Z,0
2022-09-27T05:03:44.015Z,0
2022-09-27T05:04:44.006Z,0
2022-09-27T05:05:43.994Z,0
2022-09-27T05:06:43.991Z,0
2022-09-27T05:07:43.971Z,0
2022-09-27T05:08:43.964Z,0
2022-09-27T05:09:43.961Z,0
2022-09-27T05:10:43.942Z,0
2022-09-27T05:11:43.927Z,0
2022-09-27T05:12:43.917Z,0
2022-09-27T05:13:43.903Z,0
2022-09-27T05:14:43.898Z,0
2022-09-27T05:15:43.897Z,0
2022-09-27T05:16:43.872Z,0
2022-09-27T05:17:43.864Z,0
2022-09-27T05:18:43.854Z,0
2022-09-27T05:19:43.845Z,0
2022-09-27T05:20:43.846Z,0
2022-09-27T05:21:43.829Z,0
2022-09-27T05:22:43.813Z,0
2022-09-27T05:23:43.801Z,0
2022-09-27T05:24:43.788Z,0
2022-09-27T05:25:43.772Z,0
2022-09-27T05:26:43.763Z,0
2022-09-27T05:27:43.756Z,0
2022-09-27T05:28:43.745Z,0
2022-09-27T05:29:43.735Z,0
2022-09-27T05:30:43.720Z,0
2022-09-27T05:31:43.710Z,0
2022-09-27T05:32:43.700Z,0
2022-09-27T05:33:43.686Z,0
2022-09-27T05:34:43.674Z,0
2022-09-27T05:35:43.665Z,0
2022-09-27T05:36:43.656Z,0
2022-09-27T05:37:43.644Z,0
2022-09-27T05:38:43.631Z,0
2022-09-27T05:39:43.622Z,0
2022-09-27T05:40:43.609Z,0
2022-09-27T05:41:43.597Z,0
2022-09-27T05:42:43.587Z,0
2022-09-27T05:43:43.602Z,0
2022-09-27T05:44:43.566Z,0
2022-09-27T05:45:43.557Z,0
2022-09-27T05:46:43.559Z,0
2022-09-27T05:47:43.533Z,0
2022-09-27T05:48:43.521Z,5.62
2022-09-27T05:49:43.513Z,5.62
2022-09-27T05:50:43.501Z,5.62
2022-09-27T05:51:43.490Z,5.62
2022-09-27T05:52:43.483Z,5.62
2022-09-27T05:53:43.497Z,5.62
2022-09-27T05:54:43.457Z,5.62
2022-09-27T05:55:43.445Z,5.62
2022-09-27T05:56:43.438Z,5.62
2022-09-27T05:57:43.425Z,5.62
2022-09-27T05:58:43.425Z,11.25
2022-09-27T05:59:43.428Z,11.25
2022-09-27T06:00:43.406Z,5.62
2022-09-27T06:01:43.387Z,5.62
2022-09-27T06:02:43.420Z,5.62
2022-09-27T06:03:43.363Z,5.62
2022-09-27T06:04:43.350Z,5.62
2022-09-27T06:05:43.345Z,5.62
2022-09-27T06:06:43.328Z,5.62
2022-09-27T06:07:43.323Z,11.25
2022-09-27T06:08:43.305Z,11.25
2022-09-27T06:09:43.298Z,5.62
2022-09-27T06:10:43.300Z,5.62
2022-09-27T06:11:43.272Z,11.25
2022-09-27T06:12:43.262Z,5.62
2022-09-27T06:13:43.253Z,5.62
2022-09-27T06:14:43.245Z,5.62
2022-09-27T06:15:43.243Z,5.62
2022-09-27T06:16:43.218Z,5.62
2022-09-27T06:17:43.221Z,5.62
2022-09-27T06:18:43.204Z,5.62
2022-09-27T06:19:43.186Z,11.25
2022-09-27T06:20:43.181Z,11.25
2022-09-27T06:21:43.181Z,11.25
2022-09-27T06:22:43.156Z,11.25
2022-09-27T06:23:43.143Z,16.88
2022-09-27T06:24:43.136Z,22.5
2022-09-27T06:25:43.126Z,22.5
2022-09-27T06:26:43.109Z,28.12
2022-09-27T06:27:43.103Z,28.12
2022-09-27T06:28:43.092Z,28.12
2022-09-27T06:29:43.082Z,28.12
2022-09-27T06:30:43.067Z,28.12
2022-09-27T06:31:43.055Z,28.12
2022-09-27T06:32:43.050Z,33.75
2022-09-27T06:33:43.051Z,33.75
2022-09-27T06:34:43.028Z,33.75
2022-09-27T06:35:43.012Z,33.75
2022-09-27T06:36:43.008Z,33.75
2022-09-27T06:37:42.994Z,39.38
2022-09-27T06:38:42.981Z,50.62
2022-09-27T06:39:42.975Z,56.25
2022-09-27T06:40:42.966Z,56.25
2022-09-27T06:41:42.947Z,61.88
2022-09-27T06:42:42.951Z,67.5
2022-09-27T06:43:42.924Z,78.75
2022-09-27T06:44:42.914Z,84.38
2022-09-27T06:45:42.941Z,78.75
2022-09-27T06:46:42.892Z,78.75
2022-09-27T06:47:42.880Z,67.5
2022-09-27T06:48:42.871Z,67.5
2022-09-27T06:49:42.864Z,61.88
2022-09-27T06:50:42.851Z,61.88
2022-09-27T06:51:42.846Z,61.88
2022-09-27T06:52:42.826Z,61.88
2022-09-27T06:53:42.820Z,56.25
2022-09-27T06:54:42.810Z,61.88
2022-09-27T06:55:42.802Z,61.88
2022-09-27T06:56:42.784Z,56.25
2022-09-27T06:57:42.778Z,50.62
2022-09-27T06:58:42.763Z,50.62
2022-09-27T06:59:42.756Z,45
2022-09-27T07:00:42.740Z,45
2022-09-27T07:01:42.728Z,50.62
2022-09-27T07:02:42.721Z,45
2022-09-27T07:03:42.711Z,45
2022-09-27T07:04:42.702Z,45
2022-09-27T07:05:42.694Z,39.38
2022-09-27T07:06:42.677Z,39.38
2022-09-27T07:07:42.668Z,45
2022-09-27T07:08:42.732Z,39.38
2022-09-27T07:09:42.653Z,45
2022-09-27T07:10:42.640Z,45
2022-09-27T07:11:42.624Z,45
2022-09-27T07:12:42.613Z,45
2022-09-27T07:13:42.606Z,50.62
2022-09-27T07:14:42.595Z,56.25
2022-09-27T07:15:42.585Z,56.25
2022-09-27T07:16:42.577Z,61.88
2022-09-27T07:17:42.560Z,61.88
2022-09-27T07:18:42.549Z,61.88
2022-09-27T07:19:42.544Z,67.5
2022-09-27T07:20:42.528Z,73.12
2022-09-27T07:21:42.519Z,73.12
2022-09-27T07:22:42.566Z,73.12
2022-09-27T07:23:42.499Z,67.5
2022-09-27T07:24:42.477Z,67.5
2022-09-27T07:25:42.487Z,67.5
2022-09-27T07:26:42.510Z,61.88
2022-09-27T07:27:42.449Z,56.25
2022-09-27T07:28:42.436Z,61.88
2022-09-27T07:29:42.428Z,67.5
2022-09-27T07:30:42.420Z,67.5
2022-09-27T07:31:42.418Z,67.5
2022-09-27T07:32:42.393Z,78.75
2022-09-27T07:33:42.385Z,78.75
2022-09-27T07:34:42.375Z,78.75
2022-09-27T07:35:42.366Z,84.38
2022-09-27T07:36:42.348Z,84.38
2022-09-27T07:37:42.339Z,84.38
2022-09-27T07:38:42.334Z,95.62
2022-09-27T07:39:42.344Z,78.75
2022-09-27T07:40:42.314Z,78.75
2022-09-27T07:41:42.294Z,78.75
2022-09-27T07:42:42.650Z,84.38
2022-09-27T07:43:42.278Z,106.88
2022-09-27T07:44:43.570Z,146.25
2022-09-27T07:45:42.262Z,168.75
2022-09-27T07:46:42.255Z,180
2022-09-27T07:47:42.235Z,225
2022-09-27T07:48:42.225Z,163.12
2022-09-27T07:49:43.055Z,123.75
2022-09-27T07:50:42.203Z,230.62
2022-09-27T07:51:42.194Z,230.62
2022-09-27T07:52:42.221Z,112.5
2022-09-27T07:53:42.168Z,123.75
2022-09-27T07:54:42.159Z,118.12
2022-09-27T07:55:42.152Z,118.12
2022-09-27T07:56:42.152Z,129.38
2022-09-27T07:57:42.138Z,140.62
2022-09-27T07:58:42.114Z,180
2022-09-27T07:59:42.104Z,123.75
2022-09-27T08:00:42.101Z,78.75
2022-09-27T08:01:42.084Z,73.12
2022-09-27T08:02:42.082Z,84.38
2022-09-27T08:03:42.080Z,90
2022-09-27T08:04:42.051Z,106.88
2022-09-27T08:05:42.059Z,129.38
2022-09-27T08:06:42.027Z,129.38
2022-09-27T08:07:42.048Z,129.38
2022-09-27T08:08:42.036Z,118.12
2022-09-27T08:09:41.995Z,112.5
2022-09-27T08:10:41.987Z,118.12
2022-09-27T08:11:41.977Z,101.25
2022-09-27T08:12:41.962Z,101.25
2022-09-27T08:13:41.958Z,112.5
2022-09-27T08:14:41.943Z,123.75
2022-09-27T08:15:41.933Z,135
2022-09-27T08:16:41.919Z,129.38
2022-09-27T08:17:41.910Z,112.5
2022-09-27T08:18:41.902Z,140.62
2022-09-27T08:19:41.895Z,151.88
2022-09-27T08:20:41.884Z,129.38
2022-09-27T08:21:41.892Z,123.75
2022-09-27T08:22:41.887Z,118.12
2022-09-27T08:23:41.854Z,118.12
2022-09-27T08:24:41.840Z,135
2022-09-27T08:25:41.901Z,118.12
2022-09-27T08:26:41.825Z,123.75
2022-09-27T08:27:41.815Z,129.38
2022-09-27T08:28:41.802Z,129.38
2022-09-27T08:29:41.787Z,151.88
2022-09-27T08:30:41.769Z,157.5
2022-09-27T08:31:41.810Z,157.5
2022-09-27T08:32:41.752Z,146.25
2022-09-27T08:33:41.741Z,157.5
2022-09-27T08:34:41.731Z,146.25
2022-09-27T08:35:41.717Z,140.62
2022-09-27T08:36:41.709Z,135
2022-09-27T08:37:41.699Z,123.75
2022-09-27T08:38:41.694Z,135
2022-09-27T08:39:41.686Z,151.88
2022-09-27T08:40:41.665Z,140.62
2022-09-27T08:41:41.650Z,174.38
2022-09-27T08:42:41.643Z,185.62
2022-09-27T08:43:41.641Z,191.25
2022-09-27T08:44:41.650Z,146.25
2022-09-27T08:45:41.622Z,157.5
2022-09-27T08:46:41.631Z,146.25
2022-09-27T08:47:41.590Z,135
2022-09-27T08:48:41.582Z,157.5
2022-09-27T08:49:41.591Z,185.62
2022-09-27T08:50:41.595Z,191.25
2022-09-27T08:51:41.545Z,191.25
2022-09-27T08:52:41.541Z,157.5
2022-09-27T08:53:41.531Z,151.88
2022-09-27T08:54:41.536Z,168.75
2022-09-27T08:55:41.531Z,180
2022-09-27T08:56:41.499Z,157.5
2022-09-27T08:57:41.517Z,163.12
2022-09-27T08:58:41.468Z,191.25
2022-09-27T08:59:41.458Z,174.38
2022-09-27T09:00:41.462Z,185.62
2022-09-27T09:01:41.438Z,174.38
2022-09-27T09:02:41.452Z,174.38
2022-09-27T09:03:41.420Z,208.12
2022-09-27T09:04:41.451Z,213.75
2022-09-27T09:05:41.400Z,230.62
2022-09-27T09:06:41.413Z,157.5
2022-09-27T09:07:41.415Z,146.25
2022-09-27T09:08:41.361Z,151.88
2022-09-27T09:09:41.352Z,118.12
2022-09-27T09:10:41.343Z,118.12
2022-09-27T09:11:41.332Z,146.25
2022-09-27T09:12:41.323Z,157.5
2022-09-27T09:13:41.344Z,146.25
2022-09-27T09:14:41.300Z,129.38
2022-09-27T09:15:41.283Z,106.88
2022-09-27T09:16:41.375Z,90
2022-09-27T09:17:41.267Z,84.38
2022-09-27T09:18:41.256Z,90
2022-09-27T09:19:41.257Z,95.62
2022-09-27T09:20:41.295Z,95.62
2022-09-27T09:21:41.224Z,95.62
2022-09-27T09:22:41.249Z,106.88
2022-09-27T09:23:41.210Z,112.5
2022-09-27T09:24:41.197Z,90
2022-09-27T09:25:41.181Z,90
2022-09-27T09:26:41.167Z,84.38
2022-09-27T09:27:41.160Z,84.38
2022-09-27T09:28:41.149Z,73.12
2022-09-27T09:29:41.141Z,73.12
2022-09-27T09:30:41.134Z,67.5
2022-09-27T09:31:41.156Z,61.88
2022-09-27T09:32:41.109Z,50.62
2022-09-27T09:33:41.092Z,84.38
2022-09-27T09:34:41.085Z,112.5
2022-09-27T09:35:41.079Z,106.88
2022-09-27T09:36:41.068Z,106.88
2022-09-27T09:37:41.048Z,123.75
2022-09-27T09:38:41.041Z,140.62
2022-09-27T09:39:41.027Z,180
2022-09-27T09:40:41.014Z,180
2022-09-27T09:41:41.012Z,180
2022-09-27T09:42:41.031Z,129.38
2022-09-27T09:43:40.982Z,135
2022-09-27T09:44:40.982Z,135
2022-09-27T09:45:40.967Z,151.88
2022-09-27T09:46:40.960Z,157.5
2022-09-27T09:47:40.942Z,135
2022-09-27T09:48:40.927Z,129.38
2022-09-27T09:49:40.929Z,135
2022-09-27T09:50:40.910Z,213.75
2022-09-27T09:51:40.899Z,185.62
2022-09-27T09:52:40.897Z,163.12
2022-09-27T09:53:40.877Z,185.62
2022-09-27T09:54:40.866Z,191.25
2022-09-27T09:55:40.854Z,219.38
2022-09-27T09:56:40.844Z,247.5
2022-09-27T09:57:40.829Z,208.12
2022-09-27T09:58:40.875Z,247.5
2022-09-27T09:59:40.810Z,281.25
2022-09-27T10:00:40.813Z,309.38
2022-09-27T10:01:40.790Z,270
2022-09-27T10:02:40.776Z,275.62
2022-09-27T10:03:40.769Z,275.62
2022-09-27T10:04:40.754Z,236.25
2022-09-27T10:05:40.768Z,208.12
2022-09-27T10:06:40.734Z,191.25
2022-09-27T10:07:40.724Z,191.25
2022-09-27T10:08:40.723Z,191.25
2022-09-27T10:09:40.707Z,225
2022-09-27T10:10:40.689Z,219.38
2022-09-27T10:11:40.701Z,241.88
2022-09-27T10:12:40.673Z,264.38
2022-09-27T10:13:40.659Z,270
2022-09-27T10:14:40.644Z,348.75
2022-09-27T10:15:40.638Z,298.12
2022-09-27T10:16:40.626Z,270
2022-09-27T10:17:40.619Z,191.25
2022-09-27T10:18:40.633Z,168.75
2022-09-27T10:19:40.592Z,196.88
2022-09-27T10:20:40.584Z,208.12
2022-09-27T10:21:40.574Z,180
2022-09-27T10:22:40.565Z,225
2022-09-27T10:23:40.554Z,236.25
2022-09-27T10:24:40.573Z,168.75
2022-09-27T10:25:40.533Z,208.12
2022-09-27T10:26:40.522Z,140.62
2022-09-27T10:27:40.512Z,180
2022-09-27T10:28:40.513Z,292.5
2022-09-27T10:29:40.490Z,298.12
2022-09-27T10:30:40.477Z,320.62
2022-09-27T10:31:40.469Z,309.38
2022-09-27T10:32:40.461Z,331.88
2022-09-27T10:33:40.621Z,360
2022-09-27T10:34:40.442Z,348.75
2022-09-27T10:35:40.417Z,208.12
2022-09-27T10:36:40.437Z,950.62
2022-09-27T10:37:40.403Z,258.75
2022-09-27T10:38:40.398Z,601.88
2022-09-27T10:39:40.387Z,236.25
2022-09-27T10:40:40.380Z,202.5
2022-09-27T10:41:40.362Z,208.12
2022-09-27T10:42:40.344Z,337.5
2022-09-27T10:43:40.335Z,1535.62
2022-09-27T10:44:40.327Z,2064.38
2022-09-27T10:45:47.928Z,697.5
2022-09-27T10:46:40.329Z,1985.62
2022-09-27T10:47:40.306Z,1243.12
2022-09-27T10:48:48.096Z,1456.88
2022-09-27T10:49:47.948Z,1299.38
2022-09-27T10:50:40.281Z,630
2022-09-27T10:51:47.926Z,1698.75
2022-09-27T10:52:47.832Z,2036.25
2022-09-27T10:53:40.247Z,1170
2022-09-27T10:54:40.221Z,354.38
2022-09-27T10:55:40.222Z,1755
2022-09-27T10:56:40.206Z,2002.5
2022-09-27T10:57:47.981Z,2176.88
2022-09-27T10:58:41.177Z,213.75
2022-09-27T10:59:40.258Z,286.88
2022-09-27T11:00:41.176Z,95.62
2022-09-27T11:01:40.224Z,61.88
2022-09-27T11:02:40.145Z,45
2022-09-27T11:03:40.125Z,39.38
2022-09-27T11:04:40.113Z,39.38
2022-09-27T11:05:40.148Z,33.75
2022-09-27T11:06:40.091Z,33.75
2022-09-27T11:07:40.077Z,33.75
2022-09-27T11:08:40.069Z,28.12
2022-09-27T11:09:40.059Z,28.12
2022-09-27T11:10:40.045Z,28.12
2022-09-27T11:11:47.732Z,28.12
2022-09-27T11:12:40.505Z,28.12
2022-09-27T11:13:47.610Z,33.75
2022-09-27T11:14:39.999Z,33.75
2022-09-27T11:15:40.033Z,33.75
2022-09-27T11:16:39.990Z,39.38
2022-09-27T11:17:39.986Z,39.38
2022-09-27T11:18:39.968Z,45
2022-09-27T11:19:39.959Z,45
2022-09-27T11:20:47.521Z,45
2022-09-27T11:21:39.944Z,50.62
2022-09-27T11:22:47.526Z,50.62
2022-09-27T11:23:47.486Z,56.25
2022-09-27T11:24:39.899Z,61.88
2022-09-27T11:25:39.924Z,67.5
2022-09-27T11:26:39.873Z,73.12
2022-09-27T11:27:39.913Z,84.38
2022-09-27T11:28:39.869Z,101.25
2022-09-27T11:29:39.843Z,123.75
2022-09-27T11:30:39.830Z,163.12
2022-09-27T11:31:39.831Z,185.62
2022-09-27T11:32:39.817Z,225
2022-09-27T11:33:39.841Z,236.25
2022-09-27T11:34:39.795Z,320.62
2022-09-27T11:35:39.780Z,506.25
2022-09-27T11:36:39.771Z,658.12
2022-09-27T11:37:39.771Z,281.25
2022-09-27T11:38:39.768Z,393.75
2022-09-27T11:39:39.738Z,393.75
2022-09-27T11:40:39.749Z,348.75
2022-09-27T11:41:39.714Z,303.75
2022-09-27T11:42:39.700Z,185.62
2022-09-27T11:43:39.699Z,191.25
2022-09-27T11:44:39.683Z,213.75
2022-09-27T11:45:39.670Z,241.88
2022-09-27T11:46:39.661Z,219.38
2022-09-27T11:47:39.648Z,225
2022-09-27T11:48:39.643Z,258.75
2022-09-27T11:49:39.629Z,393.75
2022-09-27T11:50:39.614Z,461.25
2022-09-27T11:51:39.614Z,247.5
2022-09-27T11:52:39.598Z,258.75
2022-09-27T11:53:39.585Z,725.62
2022-09-27T11:54:39.586Z,348.75
2022-09-27T11:55:39.572Z,315
2022-09-27T11:56:39.553Z,230.62
2022-09-27T11:57:39.545Z,230.62
2022-09-27T11:58:39.540Z,275.62
2022-09-27T11:59:39.527Z,365.62
2022-09-27T12:00:39.523Z,1552.5
2022-09-27T12:01:39.516Z,855
2022-09-27T12:02:39.490Z,1563.75
2022-09-27T12:03:39.480Z,1445.62
2022-09-27T12:04:39.498Z,1170
2022-09-27T12:05:39.469Z,315
2022-09-27T12:06:39.450Z,281.25
2022-09-27T12:07:39.444Z,315
2022-09-27T12:08:39.436Z,703.12
2022-09-27T12:09:39.417Z,1136.25
2022-09-27T12:10:39.404Z,2255.62
2022-09-27T12:11:39.392Z,2266.88
2022-09-27T12:12:39.388Z,2160
2022-09-27T12:13:39.379Z,2086.88
2022-09-27T12:14:39.361Z,556.88
2022-09-27T12:15:39.352Z,241.88
2022-09-27T12:16:39.344Z,157.5
2022-09-27T12:17:39.340Z,129.38
2022-09-27T12:18:39.324Z,118.12
2022-09-27T12:19:39.353Z,253.12
2022-09-27T12:20:39.299Z,298.12
2022-09-27T12:21:39.308Z,2013.75
2022-09-27T12:22:39.278Z,331.88
2022-09-27T12:23:39.266Z,2115
2022-09-27T12:24:39.255Z,1018.12
2022-09-27T12:25:39.244Z,2171.25
2022-09-27T12:26:39.237Z,2250
2022-09-27T12:27:39.227Z,2210.62
2022-09-27T12:28:39.232Z,1940.62
2022-09-27T12:29:39.202Z,933.75
2022-09-27T12:30:39.194Z,365.62
2022-09-27T12:31:39.189Z,264.38
2022-09-27T12:32:39.176Z,360
2022-09-27T12:33:39.157Z,258.75
2022-09-27T12:34:39.147Z,180
2022-09-27T12:35:39.141Z,196.88
2022-09-27T12:36:39.128Z,196.88
2022-09-27T12:37:39.134Z,213.75
2022-09-27T12:38:39.108Z,230.62
2022-09-27T12:39:39.092Z,2070
2022-09-27T12:40:39.090Z,1485
2022-09-27T12:41:39.074Z,421.88
2022-09-27T12:42:39.063Z,517.5
2022-09-27T12:43:39.067Z,450
2022-09-27T12:44:39.042Z,292.5
2022-09-27T12:45:39.030Z,241.88
2022-09-27T12:46:39.030Z,219.38
2022-09-27T12:47:39.020Z,292.5
2022-09-27T12:48:38.994Z,219.38
2022-09-27T12:49:39.079Z,163.12
2022-09-27T12:50:38.977Z,168.75
2022-09-27T12:51:38.966Z,151.88
2022-09-27T12:52:38.957Z,140.62
2022-09-27T12:53:38.958Z,151.88
2022-09-27T12:54:38.934Z,163.12
2022-09-27T12:55:38.921Z,140.62
2022-09-27T12:56:38.936Z,112.5
2022-09-27T12:57:38.905Z,78.75
2022-09-27T12:58:38.889Z,73.12
2022-09-27T12:59:38.877Z,73.12
2022-09-27T13:00:38.863Z,101.25
2022-09-27T13:01:38.859Z,168.75
2022-09-27T13:02:38.862Z,247.5
2022-09-27T13:03:38.830Z,247.5
2022-09-27T13:04:38.836Z,270
2022-09-27T13:05:38.808Z,258.75
2022-09-27T13:06:38.801Z,225
2022-09-27T13:07:38.802Z,208.12
2022-09-27T13:08:38.805Z,219.38
2022-09-27T13:09:38.770Z,253.12
2022-09-27T13:10:38.764Z,298.12
2022-09-27T13:11:38.746Z,343.12
2022-09-27T13:12:38.735Z,315
2022-09-27T13:13:38.738Z,281.25
2022-09-27T13:14:38.735Z,208.12
2022-09-27T13:15:38.715Z,185.62
2022-09-27T13:16:38.699Z,213.75
2022-09-27T13:17:38.712Z,270
2022-09-27T13:18:38.679Z,275.62
2022-09-27T13:19:38.670Z,247.5
2022-09-27T13:20:38.655Z,247.5
2022-09-27T13:21:38.642Z,196.88
2022-09-27T13:22:38.636Z,140.62
2022-09-27T13:23:38.623Z,106.88
2022-09-27T13:24:38.612Z,95.62
2022-09-27T13:25:38.599Z,101.25
2022-09-27T13:26:38.587Z,78.75
2022-09-27T13:27:38.586Z,61.88
2022-09-27T13:28:38.571Z,50.62
2022-09-27T13:29:38.679Z,56.25
2022-09-27T13:30:38.558Z,56.25
2022-09-27T13:31:38.533Z,67.5
2022-09-27T13:32:38.527Z,78.75
2022-09-27T13:33:38.523Z,90
2022-09-27T13:34:38.536Z,95.62
2022-09-27T13:35:38.492Z,95.62
2022-09-27T13:36:38.480Z,90